sensor_id;sensor_type;location;lat;lon;timestamp;pressure;altitude;pressure_sealevel;temperature;humidity
70407;BME280;57821;52.202;0.154;2022-10-22T00:01:15;100218.34;;;15.15;95.65
70407;BME280;57821;52.202;0.154;2022-10-22T00:03:41;100220.94;;;15.15;95.65
70407;BME280;57821;52.202;0.154;2022-10-22T00:06:08;100219.25;;;15.14;95.46
70407;BME280;57821;52.202;0.154;2022-10-22T00:08:34;100210.56;;;15.13;95.66
70407;BME280;57821;52.202;0.154;2022-10-22T00:11:13;100226.09;;;15.18;95.65
70407;BME280;57821;52.202;0.154;2022-10-22T00:13:39;100235.66;;;15.19;95.63
70407;BME280;57821;52.202;0.154;2022-10-22T00:16:06;100220.16;;;15.13;95.54
70407;BME280;57821;52.202;0.154;2022-10-22T00:18:33;100234.88;;;15.15;95.15
70407;BME280;57821;52.202;0.154;2022-10-22T00:21:00;100234.94;;;15.14;95.43
70407;BME280;57821;52.202;0.154;2022-10-22T00:23:27;100235.81;;;15.13;95.40
70407;BME280;57821;52.202;0.154;2022-10-22T00:25:54;100238.47;;;15.11;95.44
70407;BME280;57821;52.202;0.154;2022-10-22T00:28:20;100230.88;;;15.04;95.72
70407;BME280;57821;52.202;0.154;2022-10-22T00:30:47;100238.81;;;15.01;95.23
70407;BME280;57821;52.202;0.154;2022-10-22T00:33:13;100242.16;;;15.04;95.56
70407;BME280;57821;52.202;0.154;2022-10-22T00:35:40;100251.75;;;15.04;95.75
70407;BME280;57821;52.202;0.154;2022-10-22T00:38:06;100232.09;;;14.92;95.64
70407;BME280;57821;52.202;0.154;2022-10-22T00:40:33;100249.31;;;14.98;95.49
70407;BME280;57821;52.202;0.154;2022-10-22T00:43:00;100264.91;;;15.01;95.43
70407;BME280;57821;52.202;0.154;2022-10-22T00:45:27;100267.56;;;14.99;95.73
70407;BME280;57821;52.202;0.154;2022-10-22T00:48:07;100264.25;;;14.93;95.97
70407;BME280;57821;52.202;0.154;2022-10-22T00:50:41;100264.38;;;14.90;95.72
70407;BME280;57821;52.202;0.154;2022-10-22T00:53:15;100259.25;;;14.85;95.89
70407;BME280;57821;52.202;0.154;2022-10-22T00:55:43;100265.47;;;14.81;95.69
70407;BME280;57821;52.202;0.154;2022-10-22T00:58:12;100284.25;;;14.94;95.59
70407;BME280;57821;52.202;0.154;2022-10-22T01:00:39;100278.31;;;14.89;95.48
70407;BME280;57821;52.202;0.154;2022-10-22T01:03:06;100288.75;;;14.89;95.30
70407;BME280;57821;52.202;0.154;2022-10-22T01:05:43;100297.47;;;14.88;95.57
70407;BME280;57821;52.202;0.154;2022-10-22T01:08:19;100250.28;;;14.66;95.68
70407;BME280;57821;52.202;0.154;2022-10-22T01:11:14;100292.38;;;14.85;96.30
70407;BME280;57821;52.202;0.154;2022-10-22T01:16:36;100268.66;;;14.61;96.21
70407;BME280;57821;52.202;0.154;2022-10-22T01:19:21;100307.28;;;14.79;95.91
70407;BME280;57821;52.202;0.154;2022-10-22T01:21:56;100323.91;;;14.75;95.62
70407;BME280;57821;52.202;0.154;2022-10-22T01:24:35;100316.25;;;14.69;95.99
70407;BME280;57821;52.202;0.154;2022-10-22T01:29:57;100288.13;;;14.50;96.07
70407;BME280;57821;52.202;0.154;2022-10-22T01:32:26;100314.72;;;14.62;96.12
70407;BME280;57821;52.202;0.154;2022-10-22T01:34:59;100335.38;;;14.70;95.49
70407;BME280;57821;52.202;0.154;2022-10-22T01:37:33;100345.69;;;14.74;96.29
70407;BME280;57821;52.202;0.154;2022-10-22T01:40:04;100332.81;;;14.68;95.73
70407;BME280;57821;52.202;0.154;2022-10-22T01:42:32;100326.88;;;14.63;95.83
70407;BME280;57821;52.202;0.154;2022-10-22T01:44:58;100331.13;;;14.67;95.61
70407;BME280;57821;52.202;0.154;2022-10-22T01:47:49;100352.72;;;14.72;95.64
70407;BME280;57821;52.202;0.154;2022-10-22T01:50:38;100343.19;;;14.71;95.58
70407;BME280;57821;52.202;0.154;2022-10-22T01:53:17;100351.03;;;14.70;95.69
70407;BME280;57821;52.202;0.154;2022-10-22T01:58:29;100362.34;;;14.70;96.26
70407;BME280;57821;52.202;0.154;2022-10-22T02:01:05;100375.38;;;14.70;95.66
70407;BME280;57821;52.202;0.154;2022-10-22T02:03:46;100371.88;;;14.71;96.12
70407;BME280;57821;52.202;0.154;2022-10-22T02:06:18;100336.66;;;14.55;96.06
70407;BME280;57821;52.202;0.154;2022-10-22T02:08:47;100352.16;;;14.61;95.80
70407;BME280;57821;52.202;0.154;2022-10-22T02:11:15;100370.06;;;14.73;96.23
70407;BME280;57821;52.202;0.154;2022-10-22T02:13:46;100364.03;;;14.73;96.05
70407;BME280;57821;52.202;0.154;2022-10-22T02:16:33;100373.44;;;14.78;96.83
70407;BME280;57821;52.202;0.154;2022-10-22T02:19:06;100339.16;;;14.60;95.31
70407;BME280;57821;52.202;0.154;2022-10-22T02:21:36;100354.53;;;14.69;95.74
70407;BME280;57821;52.202;0.154;2022-10-22T02:24:03;100379.53;;;14.79;95.83
70407;BME280;57821;52.202;0.154;2022-10-22T02:26:45;100373.63;;;14.71;95.69
70407;BME280;57821;52.202;0.154;2022-10-22T02:29:23;100390.00;;;14.77;95.96
70407;BME280;57821;52.202;0.154;2022-10-22T02:31:52;100381.34;;;14.75;95.63
70407;BME280;57821;52.202;0.154;2022-10-22T02:34:24;100390.06;;;14.74;95.61
70407;BME280;57821;52.202;0.154;2022-10-22T02:36:53;100356.59;;;14.58;95.62
70407;BME280;57821;52.202;0.154;2022-10-22T02:39:21;100378.81;;;14.72;95.75
70407;BME280;57821;52.202;0.154;2022-10-22T02:41:48;100397.00;;;14.75;95.63
70407;BME280;57821;52.202;0.154;2022-10-22T02:44:14;100400.44;;;14.77;95.49
70407;BME280;57821;52.202;0.154;2022-10-22T02:46:42;100400.56;;;14.73;95.48
70407;BME280;57821;52.202;0.154;2022-10-22T02:49:08;100396.22;;;14.72;95.50
70407;BME280;57821;52.202;0.154;2022-10-22T02:51:35;100404.81;;;14.75;95.43
70407;BME280;57821;52.202;0.154;2022-10-22T02:54:01;100380.75;;;14.64;95.50
70407;BME280;57821;52.202;0.154;2022-10-22T02:56:28;100397.25;;;14.66;95.38
70407;BME280;57821;52.202;0.154;2022-10-22T02:58:54;100414.44;;;14.73;95.38
70407;BME280;57821;52.202;0.154;2022-10-22T03:01:20;100410.06;;;14.74;95.31
70407;BME280;57821;52.202;0.154;2022-10-22T03:03:47;100406.66;;;14.72;95.52
70407;BME280;57821;52.202;0.154;2022-10-22T03:06:14;100408.53;;;14.67;95.71
70407;BME280;57821;52.202;0.154;2022-10-22T03:08:40;100410.19;;;14.69;95.50
70407;BME280;57821;52.202;0.154;2022-10-22T03:11:07;100414.53;;;14.70;95.56
70407;BME280;57821;52.202;0.154;2022-10-22T03:13:34;100419.84;;;14.67;95.04
70407;BME280;57821;52.202;0.154;2022-10-22T03:16:01;100430.19;;;14.70;95.17
70407;BME280;57821;52.202;0.154;2022-10-22T03:18:27;100428.56;;;14.66;95.22
70407;BME280;57821;52.202;0.154;2022-10-22T03:21:03;100405.53;;;14.48;95.50
70407;BME280;57821;52.202;0.154;2022-10-22T03:23:31;100443.25;;;14.69;95.31
70407;BME280;57821;52.202;0.154;2022-10-22T03:25:58;100450.22;;;14.68;95.34
70407;BME280;57821;52.202;0.154;2022-10-22T03:28:25;100427.16;;;14.53;95.29
70407;BME280;57821;52.202;0.154;2022-10-22T03:30:51;100457.25;;;14.66;95.19
70407;BME280;57821;52.202;0.154;2022-10-22T03:33:18;100465.09;;;14.66;95.23
70407;BME280;57821;52.202;0.154;2022-10-22T03:35:45;100443.63;;;14.55;95.09
70407;BME280;57821;52.202;0.154;2022-10-22T03:38:13;100459.03;;;14.64;95.38
70407;BME280;57821;52.202;0.154;2022-10-22T03:40:41;100411.16;;;14.31;95.30
70407;BME280;57821;52.202;0.154;2022-10-22T03:43:09;100449.75;;;14.54;95.05
70407;BME280;57821;52.202;0.154;2022-10-22T03:45:35;100440.47;;;14.43;95.37
70407;BME280;57821;52.202;0.154;2022-10-22T03:48:07;100477.31;;;14.64;96.49
70407;BME280;57821;52.202;0.154;2022-10-22T03:50:33;100484.25;;;14.65;95.60
70407;BME280;57821;52.202;0.154;2022-10-22T03:53:00;100479.09;;;14.62;95.47
70407;BME280;57821;52.202;0.154;2022-10-22T03:55:26;100489.47;;;14.65;95.92
70407;BME280;57821;52.202;0.154;2022-10-22T03:57:53;100487.75;;;14.64;95.50
70407;BME280;57821;52.202;0.154;2022-10-22T04:00:19;100503.25;;;14.70;95.11
70407;BME280;57821;52.202;0.154;2022-10-22T04:02:45;100508.47;;;14.70;95.30
70407;BME280;57821;52.202;0.154;2022-10-22T04:05:12;100511.91;;;14.72;95.41
70407;BME280;57821;52.202;0.154;2022-10-22T04:07:39;100523.16;;;14.74;95.90
70407;BME280;57821;52.202;0.154;2022-10-22T04:10:07;100518.88;;;14.72;95.30
70407;BME280;57821;52.202;0.154;2022-10-22T04:12:33;100521.44;;;14.73;95.63
70407;BME280;57821;52.202;0.154;2022-10-22T04:15:00;100524.03;;;14.73;95.26
70407;BME280;57821;52.202;0.154;2022-10-22T04:17:34;100530.91;;;14.79;95.90
70407;BME280;57821;52.202;0.154;2022-10-22T04:20:03;100525.75;;;14.74;95.50
70407;BME280;57821;52.202;0.154;2022-10-22T04:22:32;100512.91;;;14.67;95.46
70407;BME280;57821;52.202;0.154;2022-10-22T04:24:59;100550.81;;;14.82;95.66
70407;BME280;57821;52.202;0.154;2022-10-22T04:27:31;100539.63;;;14.78;95.13
70407;BME280;57821;52.202;0.154;2022-10-22T04:29:58;100548.31;;;14.78;95.45
70407;BME280;57821;52.202;0.154;2022-10-22T04:32:25;100560.28;;;14.86;95.16
70407;BME280;57821;52.202;0.154;2022-10-22T04:34:52;100569.84;;;14.87;95.38
70407;BME280;57821;52.202;0.154;2022-10-22T04:37:19;100567.22;;;14.87;94.21
70407;BME280;57821;52.202;0.154;2022-10-22T04:39:45;100571.66;;;14.85;94.57
70407;BME280;57821;52.202;0.154;2022-10-22T04:42:12;100563.97;;;14.78;94.66
70407;BME280;57821;52.202;0.154;2022-10-22T04:44:39;100579.47;;;14.85;95.19
70407;BME280;57821;52.202;0.154;2022-10-22T04:47:05;100581.25;;;14.83;94.83
70407;BME280;57821;52.202;0.154;2022-10-22T04:49:32;100575.19;;;14.80;94.35
70407;BME280;57821;52.202;0.154;2022-10-22T04:51:58;100583.88;;;14.83;95.16
70407;BME280;57821;52.202;0.154;2022-10-22T04:54:25;100590.69;;;14.88;94.43
70407;BME280;57821;52.202;0.154;2022-10-22T04:56:57;100602.00;;;14.89;94.62
70407;BME280;57821;52.202;0.154;2022-10-22T04:59:24;100607.22;;;14.89;94.40
70407;BME280;57821;52.202;0.154;2022-10-22T05:01:50;100610.75;;;14.86;93.73
70407;BME280;57821;52.202;0.154;2022-10-22T05:04:17;100611.56;;;14.88;93.27
70407;BME280;57821;52.202;0.154;2022-10-22T05:06:43;100600.50;;;14.78;93.37
70407;BME280;57821;52.202;0.154;2022-10-22T05:09:12;100587.72;;;14.66;93.34
70407;BME280;57821;52.202;0.154;2022-10-22T05:11:40;100612.63;;;14.79;92.94
70407;BME280;57821;52.202;0.154;2022-10-22T05:14:09;100617.03;;;14.79;92.94
70407;BME280;57821;52.202;0.154;2022-10-22T05:16:36;100624.00;;;14.78;92.59
70407;BME280;57821;52.202;0.154;2022-10-22T05:19:04;100621.38;;;14.78;92.56
70407;BME280;57821;52.202;0.154;2022-10-22T05:21:31;100633.59;;;14.76;91.94
70407;BME280;57821;52.202;0.154;2022-10-22T05:23:57;100634.59;;;14.71;91.75
70407;BME280;57821;52.202;0.154;2022-10-22T05:26:25;100634.63;;;14.69;91.37
70407;BME280;57821;52.202;0.154;2022-10-22T05:28:52;100630.56;;;14.56;91.58
70407;BME280;57821;52.202;0.154;2022-10-22T05:31:18;100653.03;;;14.63;91.64
70407;BME280;57821;52.202;0.154;2022-10-22T05:33:45;100648.75;;;14.61;90.86
70407;BME280;57821;52.202;0.154;2022-10-22T05:36:14;100650.63;;;14.54;91.69
70407;BME280;57821;52.202;0.154;2022-10-22T05:38:41;100643.59;;;14.56;91.87
70407;BME280;57821;52.202;0.154;2022-10-22T05:41:10;100617.03;;;14.39;90.47
70407;BME280;57821;52.202;0.154;2022-10-22T05:43:37;100639.44;;;14.49;89.21
70407;BME280;57821;52.202;0.154;2022-10-22T05:46:09;100644.66;;;14.49;90.95
70407;BME280;57821;52.202;0.154;2022-10-22T05:48:36;100648.16;;;14.48;90.37
70407;BME280;57821;52.202;0.154;2022-10-22T05:51:04;100650.00;;;14.43;90.95
70407;BME280;57821;52.202;0.154;2022-10-22T05:53:32;100651.72;;;14.44;91.15
70407;BME280;57821;52.202;0.154;2022-10-22T05:56:03;100650.03;;;14.40;91.37
70407;BME280;57821;52.202;0.154;2022-10-22T05:58:30;100663.97;;;14.39;91.43
70407;BME280;57821;52.202;0.154;2022-10-22T06:01:46;100677.00;;;14.39;91.40
70407;BME280;57821;52.202;0.154;2022-10-22T06:03:55;100642.69;;;14.16;91.53
70407;BME280;57821;52.202;0.154;2022-10-22T06:06:26;100694.47;;;14.34;91.80
70407;BME280;57821;52.202;0.154;2022-10-22T06:08:53;100697.16;;;14.31;91.59
70407;BME280;57821;52.202;0.154;2022-10-22T06:11:22;100700.69;;;14.27;90.83
70407;BME280;57821;52.202;0.154;2022-10-22T06:13:50;100702.63;;;14.19;90.43
70407;BME280;57821;52.202;0.154;2022-10-22T06:16:16;100709.72;;;14.11;90.43
70407;BME280;57821;52.202;0.154;2022-10-22T06:18:43;100711.44;;;14.12;90.54
70407;BME280;57821;52.202;0.154;2022-10-22T06:21:11;100716.75;;;14.06;90.33
70407;BME280;57821;52.202;0.154;2022-10-22T06:23:39;100713.38;;;14.01;90.65
70407;BME280;57821;52.202;0.154;2022-10-22T06:26:06;100715.22;;;13.95;90.32
70407;BME280;57821;52.202;0.154;2022-10-22T06:28:33;100701.53;;;13.84;90.71
70407;BME280;57821;52.202;0.154;2022-10-22T06:31:00;100720.66;;;13.83;90.15
70407;BME280;57821;52.202;0.154;2022-10-22T06:33:28;100726.81;;;13.79;90.05
70407;BME280;57821;52.202;0.154;2022-10-22T06:36:04;100716.69;;;13.63;91.00
70407;BME280;57821;52.202;0.154;2022-10-22T06:38:33;100725.31;;;13.65;90.48
70407;BME280;57821;52.202;0.154;2022-10-22T06:41:04;100699.72;;;13.37;90.45
70407;BME280;57821;52.202;0.154;2022-10-22T06:43:31;100737.66;;;13.52;90.57
70407;BME280;57821;52.202;0.154;2022-10-22T06:46:02;100746.34;;;13.54;90.62
70407;BME280;57821;52.202;0.154;2022-10-22T06:48:29;100754.22;;;13.51;92.60
70407;BME280;57821;52.202;0.154;2022-10-22T06:51:00;100764.66;;;13.48;90.59
70407;BME280;57821;52.202;0.154;2022-10-22T06:53:27;100763.00;;;13.44;90.92
70407;BME280;57821;52.202;0.154;2022-10-22T06:55:54;100758.84;;;13.31;90.75
70407;BME280;57821;52.202;0.154;2022-10-22T06:58:20;100742.56;;;13.16;90.65
70407;BME280;57821;52.202;0.154;2022-10-22T07:00:47;100791.75;;;13.36;91.04
70407;BME280;57821;52.202;0.154;2022-10-22T07:03:14;100788.28;;;13.34;90.27
70407;BME280;57821;52.202;0.154;2022-10-22T07:05:40;100791.88;;;13.27;90.71
70407;BME280;57821;52.202;0.154;2022-10-22T07:08:07;100794.50;;;13.26;90.53
70407;BME280;57821;52.202;0.154;2022-10-22T07:10:33;100802.22;;;13.32;91.21
70407;BME280;57821;52.202;0.154;2022-10-22T07:13:00;100801.38;;;13.31;91.42
70407;BME280;57821;52.202;0.154;2022-10-22T07:15:26;100799.63;;;13.32;91.11
70407;BME280;57821;52.202;0.154;2022-10-22T07:17:53;100779.84;;;13.19;91.48
70407;BME280;57821;52.202;0.154;2022-10-22T07:20:19;100804.94;;;13.26;91.18
70407;BME280;57821;52.202;0.154;2022-10-22T07:22:46;100821.28;;;13.35;91.33
70407;BME280;57821;52.202;0.154;2022-10-22T07:25:12;100823.88;;;13.35;91.69
70407;BME280;57821;52.202;0.154;2022-10-22T07:27:39;100814.41;;;13.30;91.06
70407;BME280;57821;52.202;0.154;2022-10-22T07:30:06;100826.53;;;13.32;91.54
70407;BME280;57821;52.202;0.154;2022-10-22T07:32:33;100842.06;;;13.38;90.88
70407;BME280;57821;52.202;0.154;2022-10-22T07:34:59;100850.75;;;13.39;91.48
70407;BME280;57821;52.202;0.154;2022-10-22T07:37:26;100851.56;;;13.41;91.45
70407;BME280;57821;52.202;0.154;2022-10-22T07:39:52;100857.72;;;13.37;91.54
70407;BME280;57821;52.202;0.154;2022-10-22T07:42:19;100873.28;;;13.41;91.39
70407;BME280;57821;52.202;0.154;2022-10-22T07:44:45;100838.84;;;13.20;91.03
70407;BME280;57821;52.202;0.154;2022-10-22T07:47:12;100867.28;;;13.36;91.23
70407;BME280;57821;52.202;0.154;2022-10-22T07:49:38;100868.06;;;13.41;91.58
70407;BME280;57821;52.202;0.154;2022-10-22T07:52:06;100884.53;;;13.45;91.31
70407;BME280;57821;52.202;0.154;2022-10-22T07:54:32;100887.94;;;13.50;91.20
70407;BME280;57821;52.202;0.154;2022-10-22T07:56:59;100887.88;;;13.53;91.46
70407;BME280;57821;52.202;0.154;2022-10-22T07:59:25;100870.66;;;13.43;91.04
70407;BME280;57821;52.202;0.154;2022-10-22T08:01:52;100892.22;;;13.52;91.12
70407;BME280;57821;52.202;0.154;2022-10-22T08:04:18;100899.16;;;13.52;90.96
70407;BME280;57821;52.202;0.154;2022-10-22T08:06:45;100903.59;;;13.47;91.26
70407;BME280;57821;52.202;0.154;2022-10-22T08:09:13;100913.06;;;13.54;91.55
70407;BME280;57821;52.202;0.154;2022-10-22T08:11:39;100922.59;;;13.55;91.08
70407;BME280;57821;52.202;0.154;2022-10-22T08:14:06;100919.06;;;13.57;91.47
70407;BME280;57821;52.202;0.154;2022-10-22T08:16:32;100923.41;;;13.58;90.65
70407;BME280;57821;52.202;0.154;2022-10-22T08:18:59;100923.47;;;13.55;90.63
70407;BME280;57821;52.202;0.154;2022-10-22T08:21:25;100920.88;;;13.52;90.71
70407;BME280;57821;52.202;0.154;2022-10-22T08:23:52;100921.75;;;13.53;91.42
70407;BME280;57821;52.202;0.154;2022-10-22T08:26:18;100932.06;;;13.62;91.10
70407;BME280;57821;52.202;0.154;2022-10-22T08:28:45;100933.00;;;13.56;91.02
70407;BME280;57821;52.202;0.154;2022-10-22T08:31:12;100939.88;;;13.62;91.37
70407;BME280;57821;52.202;0.154;2022-10-22T08:33:38;100944.09;;;13.71;91.77
70407;BME280;57821;52.202;0.154;2022-10-22T08:36:05;100955.28;;;13.77;92.61
70407;BME280;57821;52.202;0.154;2022-10-22T08:38:32;100939.66;;;13.77;91.67
70407;BME280;57821;52.202;0.154;2022-10-22T08:41:15;100948.09;;;13.94;93.14
70407;BME280;57821;52.202;0.154;2022-10-22T08:49:32;100942.34;;;14.31;92.02
70407;BME280;57821;52.202;0.154;2022-10-22T08:52:11;100940.44;;;14.42;92.25
70407;BME280;57821;52.202;0.154;2022-10-22T08:54:51;100978.91;;;14.82;92.91
70407;BME280;57821;52.202;0.154;2022-10-22T08:57:39;100968.00;;;15.07;94.10
70407;BME280;57821;52.202;0.154;2022-10-22T09:00:13;100948.63;;;15.19;92.87
70407;BME280;57821;52.202;0.154;2022-10-22T09:03:05;100981.69;;;15.65;90.87
70407;BME280;57821;52.202;0.154;2022-10-22T09:05:49;100928.03;;;15.45;91.12
70407;BME280;57821;52.202;0.154;2022-10-22T09:08:22;100970.63;;;15.92;90.35
70407;BME280;57821;52.202;0.154;2022-10-22T09:10:57;100975.41;;;16.13;90.03
70407;BME280;57821;52.202;0.154;2022-10-22T09:13:27;100986.19;;;16.36;90.26
70407;BME280;57821;52.202;0.154;2022-10-22T09:15:59;100983.06;;;16.56;89.15
70407;BME280;57821;52.202;0.154;2022-10-22T09:18:40;100992.19;;;16.77;89.04
70407;BME280;57821;52.202;0.154;2022-10-22T09:21:18;100981.38;;;16.89;90.03
70407;BME280;57821;52.202;0.154;2022-10-22T09:23:57;100992.09;;;17.12;88.54
70407;BME280;57821;52.202;0.154;2022-10-22T09:26:26;100994.19;;;17.32;88.60
70407;BME280;57821;52.202;0.154;2022-10-22T09:28:53;100997.91;;;17.56;87.98
70407;BME280;57821;52.202;0.154;2022-10-22T09:31:20;100994.94;;;17.68;85.60
70407;BME280;57821;52.202;0.154;2022-10-22T09:33:49;100990.78;;;17.61;83.00
70407;BME280;57821;52.202;0.154;2022-10-22T09:36:18;100980.31;;;17.59;84.62
70407;BME280;57821;52.202;0.154;2022-10-22T09:38:49;100989.84;;;17.63;84.12
70407;BME280;57821;52.202;0.154;2022-10-22T09:41:24;101019.94;;;17.81;86.45
70407;BME280;57821;52.202;0.154;2022-10-22T09:43:51;100983.25;;;17.80;83.48
70407;BME280;57821;52.202;0.154;2022-10-22T09:46:21;100984.63;;;17.91;83.13
70407;BME280;57821;52.202;0.154;2022-10-22T09:49:03;100989.59;;;18.00;82.94
70407;BME280;57821;52.202;0.154;2022-10-22T09:51:41;100989.22;;;18.13;83.83
70407;BME280;57821;52.202;0.154;2022-10-22T09:56:50;101007.06;;;18.29;79.74
70407;BME280;57821;52.202;0.154;2022-10-22T09:59:18;101020.34;;;18.25;84.70
70407;BME280;57821;52.202;0.154;2022-10-22T10:01:44;101024.88;;;18.20;80.29
70407;BME280;57821;52.202;0.154;2022-10-22T10:04:13;101033.84;;;18.13;78.44
70407;BME280;57821;52.202;0.154;2022-10-22T10:06:43;101033.34;;;18.00;77.67
70407;BME280;57821;52.202;0.154;2022-10-22T10:09:18;100995.78;;;17.70;79.64
70407;BME280;57821;52.202;0.154;2022-10-22T10:12:02;101026.06;;;17.80;80.79
70407;BME280;57821;52.202;0.154;2022-10-22T10:17:21;101021.31;;;17.63;80.47
70407;BME280;57821;52.202;0.154;2022-10-22T10:27:43;101050.00;;;17.36;82.70
70407;BME280;57821;52.202;0.154;2022-10-22T10:30:20;101028.00;;;17.09;80.48
70407;BME280;57821;52.202;0.154;2022-10-22T10:36:26;101054.81;;;17.18;80.18
70407;BME280;57821;52.202;0.154;2022-10-22T10:41:15;101060.00;;;17.21;78.28
70407;BME280;57821;52.202;0.154;2022-10-22T10:49:41;101060.72;;;16.94;78.36
70407;BME280;57821;52.202;0.154;2022-10-22T10:52:29;101084.19;;;16.97;81.95
70407;BME280;57821;52.202;0.154;2022-10-22T10:55:31;101076.50;;;16.91;82.49
70407;BME280;57821;52.202;0.154;2022-10-22T10:58:14;101054.34;;;16.69;80.34
70407;BME280;57821;52.202;0.154;2022-10-22T11:00:52;101050.19;;;16.60;78.57
70407;BME280;57821;52.202;0.154;2022-10-22T11:03:45;101085.75;;;16.69;82.67
70407;BME280;57821;52.202;0.154;2022-10-22T11:06:18;101033.19;;;16.39;79.50
70407;BME280;57821;52.202;0.154;2022-10-22T11:08:55;101084.94;;;16.67;80.54
70407;BME280;57821;52.202;0.154;2022-10-22T11:17:00;101042.69;;;16.43;79.03
70407;BME280;57821;52.202;0.154;2022-10-22T11:22:31;101053.28;;;16.37;78.85
70407;BME280;57821;52.202;0.154;2022-10-22T11:28:00;101079.13;;;16.53;79.50
70407;BME280;57821;52.202;0.154;2022-10-22T11:30:35;101066.31;;;16.42;79.93
70407;BME280;57821;52.202;0.154;2022-10-22T11:33:06;101087.88;;;16.52;80.16
70407;BME280;57821;52.202;0.154;2022-10-22T11:35:40;101082.75;;;16.47;79.14
70407;BME280;57821;52.202;0.154;2022-10-22T11:38:12;101061.34;;;16.30;78.53
70407;BME280;57821;52.202;0.154;2022-10-22T11:41:00;101091.56;;;16.43;82.37
70407;BME280;57821;52.202;0.154;2022-10-22T11:43:57;101087.09;;;16.48;80.29
70407;BME280;57821;52.202;0.154;2022-10-22T11:46:28;101081.06;;;16.44;80.40
70407;BME280;57821;52.202;0.154;2022-10-22T11:49:14;101085.28;;;16.50;84.00
70407;BME280;57821;52.202;0.154;2022-10-22T11:51:43;101054.28;;;16.32;79.95
70407;BME280;57821;52.202;0.154;2022-10-22T12:02:43;101078.19;;;16.55;84.36
70407;BME280;57821;52.202;0.154;2022-10-22T12:07:55;101079.94;;;16.55;81.95
70407;BME280;57821;52.202;0.154;2022-10-22T12:10:29;101091.22;;;16.60;82.56
70407;BME280;57821;52.202;0.154;2022-10-22T12:13:19;101075.63;;;16.54;84.73
70407;BME280;57821;52.202;0.154;2022-10-22T12:15:48;101076.38;;;16.59;81.44
70407;BME280;57821;52.202;0.154;2022-10-22T12:18:16;101078.88;;;16.65;81.13
70407;BME280;57821;52.202;0.154;2022-10-22T12:20:43;101070.94;;;16.68;80.81
70407;BME280;57821;52.202;0.154;2022-10-22T12:23:14;101076.16;;;16.69;81.28
70407;BME280;57821;52.202;0.154;2022-10-22T12:25:41;101061.50;;;16.61;80.58
70407;BME280;57821;52.202;0.154;2022-10-22T12:28:11;101067.44;;;16.69;81.86
70407;BME280;57821;52.202;0.154;2022-10-22T12:30:38;101086.31;;;16.83;80.52
70407;BME280;57821;52.202;0.154;2022-10-22T12:33:06;101081.81;;;16.88;81.50
70407;BME280;57821;52.202;0.154;2022-10-22T12:35:40;101040.38;;;16.70;79.35
70407;BME280;57821;52.202;0.154;2022-10-22T12:38:15;101070.38;;;16.91;80.08
70407;BME280;57821;52.202;0.154;2022-10-22T12:40:42;101072.97;;;16.92;80.43
70407;BME280;57821;52.202;0.154;2022-10-22T12:43:22;101051.34;;;16.84;80.51
70407;BME280;57821;52.202;0.154;2022-10-22T12:45:50;101037.44;;;16.82;81.66
70407;BME280;57821;52.202;0.154;2022-10-22T12:48:21;101038.22;;;16.86;81.66
70407;BME280;57821;52.202;0.154;2022-10-22T12:50:53;101034.59;;;16.91;81.24
70407;BME280;57821;52.202;0.154;2022-10-22T12:53:24;101067.28;;;17.10;78.70
70407;BME280;57821;52.202;0.154;2022-10-22T12:55:53;101065.47;;;17.12;81.03
70407;BME280;57821;52.202;0.154;2022-10-22T12:58:25;101035.41;;;16.93;83.33
70407;BME280;57821;52.202;0.154;2022-10-22T13:00:54;101053.34;;;17.08;81.96
70407;BME280;57821;52.202;0.154;2022-10-22T13:03:42;101075.88;;;17.15;84.77
70407;BME280;57821;52.202;0.154;2022-10-22T13:11:40;101082.69;;;17.22;83.03
70407;BME280;57821;52.202;0.154;2022-10-22T13:14:39;101056.72;;;17.13;88.18
70407;BME280;57821;52.202;0.154;2022-10-22T13:17:19;101077.19;;;17.32;86.30
70407;BME280;57821;52.202;0.154;2022-10-22T13:22:37;101082.44;;;17.32;87.79
70407;BME280;57821;52.202;0.154;2022-10-22T13:27:44;101077.03;;;17.38;84.11
70407;BME280;57821;52.202;0.154;2022-10-22T13:30:22;101038.19;;;17.21;85.05
70407;BME280;57821;52.202;0.154;2022-10-22T13:32:51;101075.16;;;17.43;82.11
70407;BME280;57821;52.202;0.154;2022-10-22T13:35:22;101079.47;;;17.45;83.00
70407;BME280;57821;52.202;0.154;2022-10-22T13:37:49;101069.78;;;17.47;81.31
70407;BME280;57821;52.202;0.154;2022-10-22T13:40:16;101064.66;;;17.43;80.68
70407;BME280;57821;52.202;0.154;2022-10-22T13:42:43;101094.31;;;17.45;80.52
70407;BME280;57821;52.202;0.154;2022-10-22T13:45:11;101079.47;;;17.45;81.04
70407;BME280;57821;52.202;0.154;2022-10-22T13:47:38;101074.13;;;17.48;82.03
70407;BME280;57821;52.202;0.154;2022-10-22T13:50:16;101075.88;;;17.48;84.28
70407;BME280;57821;52.202;0.154;2022-10-22T13:52:53;101056.75;;;17.44;85.32
70407;BME280;57821;52.202;0.154;2022-10-22T13:55:27;101044.69;;;17.39;83.68
70407;BME280;57821;52.202;0.154;2022-10-22T13:58:10;101072.13;;;17.58;86.53
70407;BME280;57821;52.202;0.154;2022-10-22T14:00:38;101076.31;;;17.65;82.54
70407;BME280;57821;52.202;0.154;2022-10-22T14:03:09;101074.53;;;17.67;83.20
70407;BME280;57821;52.202;0.154;2022-10-22T14:05:36;101078.91;;;17.67;81.49
70407;BME280;57821;52.202;0.154;2022-10-22T14:08:04;101090.97;;;17.72;81.28
70407;BME280;57821;52.202;0.154;2022-10-22T14:10:34;101086.53;;;17.76;82.33
70407;BME280;57821;52.202;0.154;2022-10-22T14:13:01;101088.16;;;17.80;80.00
70407;BME280;57821;52.202;0.154;2022-10-22T14:15:28;101069.03;;;17.76;81.33
70407;BME280;57821;52.202;0.154;2022-10-22T14:17:56;101050.94;;;17.65;81.25
70407;BME280;57821;52.202;0.154;2022-10-22T14:20:27;101041.31;;;17.66;82.67